createdAt,value
2023-01-04T00:00:15.981Z,9.30
2023-01-04T00:02:42.961Z,9.40
2023-01-04T00:05:09.923Z,9.50
2023-01-04T00:07:38.162Z,9.50
2023-01-04T00:10:05.294Z,9.50
2023-01-04T00:12:32.107Z,9.50
2023-01-04T00:14:58.879Z,9.60
2023-01-04T00:17:25.651Z,9.60
2023-01-04T00:19:52.465Z,9.70
2023-01-04T00:22:19.270Z,9.60
2023-01-04T00:24:47.518Z,9.70
2023-01-04T00:27:14.367Z,9.60
2023-01-04T00:29:41.153Z,9.60
2023-01-04T00:32:08.061Z,9.70
2023-01-04T00:34:34.818Z,9.60
2023-01-04T00:37:01.683Z,9.60
2023-01-04T00:39:28.522Z,9.60
2023-01-04T00:41:59.738Z,9.70
2023-01-04T00:44:27.463Z,9.70
2023-01-04T00:46:54.379Z,9.70
2023-01-04T00:49:21.168Z,9.70
2023-01-04T00:51:48.081Z,9.80
2023-01-04T00:54:15.567Z,9.70
2023-01-04T00:56:42.732Z,9.80
2023-01-04T00:59:11.932Z,9.70
2023-01-04T01:01:39.598Z,9.80
2023-01-04T01:04:06.507Z,9.80
2023-01-04T01:06:33.874Z,9.70
2023-01-04T01:09:00.885Z,9.80
2023-01-04T01:11:28.312Z,9.70
2023-01-04T01:13:55.364Z,9.70
2023-01-04T01:16:51.934Z,9.80
2023-01-04T01:19:11.035Z,9.70
2023-01-04T01:21:38.027Z,9.70
2023-01-04T01:24:05.387Z,9.70
2023-01-04T01:26:32.321Z,9.90
2023-01-04T01:28:59.233Z,9.90
2023-01-04T01:31:28.181Z,9.90
2023-01-04T01:33:55.607Z,10.00
2023-01-04T01:36:23.577Z,10.00
2023-01-04T01:38:50.348Z,9.90
2023-01-04T01:41:18.613Z,9.80
2023-01-04T01:43:49.401Z,9.80
2023-01-04T01:46:17.535Z,9.90
2023-01-04T01:48:45.876Z,10.00
2023-01-04T01:51:15.674Z,10.00
2023-01-04T01:53:43.939Z,10.00
2023-01-04T01:56:11.064Z,10.00
2023-01-04T01:58:39.952Z,10.00
2023-01-04T02:01:07.631Z,10.10
2023-01-04T02:03:36.455Z,10.20
2023-01-04T02:06:06.629Z,10.30
2023-01-04T02:08:33.598Z,10.20
2023-01-04T02:11:00.365Z,10.20
2023-01-04T02:13:29.024Z,10.30
2023-01-04T02:15:59.553Z,10.30
2023-01-04T02:18:30.952Z,10.40
2023-01-04T02:21:01.683Z,10.30
2023-01-04T02:23:46.969Z,10.40
2023-01-04T02:26:33.998Z,10.40
2023-01-04T02:29:11.764Z,10.40
2023-01-04T02:31:41.519Z,10.30
2023-01-04T02:34:12.716Z,10.40
2023-01-04T02:36:40.766Z,10.50
2023-01-04T02:39:13.355Z,10.40
2023-01-04T02:41:42.815Z,10.40
2023-01-04T02:44:14.073Z,10.50
2023-01-04T02:46:43.509Z,10.50
2023-01-04T02:49:10.408Z,10.60
2023-01-04T02:51:37.935Z,10.70
2023-01-04T02:54:06.084Z,10.70
2023-01-04T02:56:45.091Z,10.70
2023-01-04T02:59:21.302Z,10.70
2023-01-04T03:01:52.139Z,10.70
2023-01-04T03:04:25.339Z,10.80
2023-01-04T03:06:56.991Z,10.80
2023-01-04T03:09:27.209Z,10.70
2023-01-04T03:11:56.557Z,10.70
2023-01-04T03:14:32.047Z,10.80
2023-01-04T03:17:02.788Z,10.80
2023-01-04T03:19:31.509Z,10.80
2023-01-04T03:21:58.360Z,10.70
2023-01-04T03:24:25.210Z,10.80
2023-01-04T03:26:53.366Z,10.90
2023-01-04T03:29:25.866Z,10.90
2023-01-04T03:31:55.006Z,10.90
2023-01-04T03:34:23.415Z,10.90
2023-01-04T03:37:00.706Z,10.90
2023-01-04T03:39:33.118Z,10.80
2023-01-04T03:42:01.405Z,11.00
2023-01-04T03:44:30.855Z,11.00
2023-01-04T03:47:01.894Z,11.00
2023-01-04T03:49:32.582Z,11.00
2023-01-04T03:52:01.945Z,11.00
2023-01-04T03:54:31.660Z,11.00
2023-01-04T03:56:58.814Z,11.00
2023-01-04T03:59:25.727Z,11.00
2023-01-04T04:01:52.858Z,11.00
2023-01-04T04:04:20.203Z,11.10
2023-01-04T04:06:48.410Z,11.10
2023-01-04T04:09:15.152Z,11.20
2023-01-04T04:11:41.979Z,11.20
2023-01-04T04:14:08.816Z,11.20
2023-01-04T04:16:35.802Z,11.20
2023-01-04T04:19:08.234Z,11.20
2023-01-04T04:21:36.095Z,11.30
2023-01-04T04:24:04.500Z,11.30
2023-01-04T04:26:31.351Z,11.30
2023-01-04T04:28:58.070Z,11.30
2023-01-04T04:31:24.841Z,11.40
2023-01-04T04:33:51.675Z,11.40
2023-01-04T04:36:18.662Z,11.40
2023-01-04T04:38:45.477Z,11.40
2023-01-04T04:41:13.971Z,11.40
2023-01-04T04:43:40.809Z,11.40
2023-01-04T04:46:07.669Z,11.40
2023-01-04T04:48:34.603Z,11.50
2023-01-04T04:51:01.379Z,11.50
2023-01-04T04:53:28.370Z,11.50
2023-01-04T04:55:55.200Z,11.50
2023-01-04T04:58:23.426Z,11.50
2023-01-04T05:00:50.264Z,11.50
2023-01-04T05:03:17.111Z,11.60
2023-01-04T05:05:43.983Z,11.60
2023-01-04T05:08:10.737Z,11.60
2023-01-04T05:10:37.530Z,11.50
2023-01-04T05:13:04.419Z,11.60
2023-01-04T05:15:33.754Z,11.60
2023-01-04T05:18:00.634Z,11.60
2023-01-04T05:20:27.432Z,11.60
2023-01-04T05:22:54.271Z,11.60
2023-01-04T05:25:21.055Z,11.60
2023-01-04T05:27:47.901Z,11.60
2023-01-04T05:30:15.345Z,11.60
2023-01-04T05:32:43.614Z,11.70
2023-01-04T05:35:10.379Z,11.70
2023-01-04T05:37:37.280Z,11.70
2023-01-04T05:40:04.395Z,11.70
2023-01-04T05:42:31.133Z,11.70
2023-01-04T05:44:58.999Z,11.80
2023-01-04T05:47:25.904Z,11.80
2023-01-04T05:49:54.204Z,11.80
2023-01-04T05:52:21.293Z,11.80
2023-01-04T05:54:48.427Z,11.90
2023-01-04T05:57:15.567Z,11.90
2023-01-04T05:59:42.482Z,11.90
2023-01-04T06:02:13.739Z,11.90
2023-01-04T06:04:40.769Z,11.90
2023-01-04T06:07:09.005Z,11.70
2023-01-04T06:09:35.816Z,11.60
2023-01-04T06:12:02.593Z,11.60
2023-01-04T06:14:29.348Z,11.60
2023-01-04T06:16:56.110Z,11.60
2023-01-04T06:19:23.316Z,11.70
2023-01-04T06:21:50.309Z,11.60
2023-01-04T06:24:18.576Z,11.70
2023-01-04T06:26:45.562Z,11.60
2023-01-04T06:29:12.476Z,11.60
2023-01-04T06:31:39.285Z,11.60
2023-01-04T06:34:06.028Z,11.60
2023-01-04T06:36:33.038Z,11.60
2023-01-04T06:39:00.216Z,11.60
2023-01-04T06:41:28.373Z,11.60
2023-01-04T06:43:55.207Z,11.60
2023-01-04T06:46:22.015Z,11.70
2023-01-04T06:48:49.009Z,11.70
2023-01-04T06:51:15.787Z,11.90
2023-01-04T06:53:42.593Z,11.90
2023-01-04T06:56:09.349Z,11.90
2023-01-04T06:58:37.651Z,11.90
2023-01-04T07:01:04.702Z,11.90
2023-01-04T07:03:31.768Z,11.90
2023-01-04T07:05:58.890Z,11.90
2023-01-04T07:08:25.884Z,11.90
2023-01-04T07:10:52.682Z,12.00
2023-01-04T07:13:19.482Z,12.00
2023-01-04T07:15:47.714Z,12.00
2023-01-04T07:18:14.635Z,12.00
2023-01-04T07:20:41.480Z,12.00
2023-01-04T07:23:08.371Z,12.00
2023-01-04T07:25:35.546Z,12.00
2023-01-04T07:28:02.673Z,12.00
2023-01-04T07:30:29.777Z,12.00
2023-01-04T07:32:58.561Z,12.00
2023-01-04T07:35:25.946Z,12.10
2023-01-04T07:37:58.292Z,12.00
2023-01-04T07:40:25.832Z,12.00
2023-01-04T07:42:56.454Z,12.00
2023-01-04T07:45:23.310Z,12.10
2023-01-04T07:47:50.300Z,12.20
2023-01-04T07:50:18.481Z,12.10
2023-01-04T07:52:45.394Z,12.10
2023-01-04T07:55:12.266Z,12.10
2023-01-04T07:57:39.085Z,12.20
2023-01-04T08:00:06.584Z,12.20
2023-01-04T08:02:33.500Z,12.10
2023-01-04T08:05:00.657Z,12.10
2023-01-04T08:07:28.837Z,12.10
2023-01-04T08:09:55.908Z,12.20
2023-01-04T08:12:22.696Z,12.10
2023-01-04T08:14:49.469Z,12.20
2023-01-04T08:17:16.278Z,12.20
2023-01-04T08:19:43.070Z,12.20
2023-01-04T08:22:10.136Z,12.20
2023-01-04T08:24:38.333Z,12.20
2023-01-04T08:27:05.265Z,12.20
2023-01-04T08:29:40.248Z,12.20
2023-01-04T08:32:10.483Z,12.20
2023-01-04T08:34:37.289Z,12.30
2023-01-04T08:37:04.108Z,12.30
2023-01-04T08:39:30.841Z,12.30
2023-01-04T08:44:45.898Z,12.30
2023-01-04T08:47:12.712Z,12.40
2023-01-04T08:49:39.489Z,12.40
2023-01-04T08:52:06.353Z,12.40
2023-01-04T08:54:33.204Z,12.50
2023-01-04T08:57:01.409Z,12.40
2023-01-04T08:59:28.183Z,12.50
2023-01-04T09:01:58.523Z,12.50
2023-01-04T09:04:29.800Z,12.60
2023-01-04T09:06:57.188Z,12.60
2023-01-04T09:09:25.538Z,12.60
2023-01-04T09:11:52.636Z,12.60
2023-01-04T09:14:20.770Z,12.60
2023-01-04T09:16:47.646Z,12.50
2023-01-04T09:19:21.369Z,12.50
2023-01-04T09:21:48.949Z,12.50
2023-01-04T09:24:15.773Z,12.50
2023-01-04T09:26:42.522Z,12.50
2023-01-04T09:29:10.802Z,12.60
2023-01-04T09:31:39.144Z,12.60
2023-01-04T09:34:15.175Z,12.50
2023-01-04T09:36:43.263Z,12.40
2023-01-04T09:39:16.788Z,12.40
2023-01-04T09:41:52.365Z,12.30
2023-01-04T09:44:46.278Z,12.40
2023-01-04T09:47:17.512Z,12.40
2023-01-04T09:49:45.801Z,12.50
2023-01-04T09:52:15.203Z,12.40
2023-01-04T09:55:41.523Z,12.40
2023-01-04T09:58:14.255Z,12.50
2023-01-04T10:00:44.245Z,12.50
2023-01-04T10:03:13.375Z,12.50
2023-01-04T10:05:40.666Z,12.40
2023-01-04T10:08:13.619Z,12.40
2023-01-04T10:10:47.336Z,12.40
2023-01-04T10:13:18.016Z,12.40
2023-01-04T10:15:48.009Z,12.40
2023-01-04T10:21:32.243Z,12.50
2023-01-04T10:24:09.939Z,12.70
2023-01-04T10:26:40.063Z,12.60
2023-01-04T10:29:19.483Z,12.60
2023-01-04T10:31:48.188Z,12.70
2023-01-04T10:34:19.895Z,12.70
2023-01-04T10:36:47.554Z,12.70
2023-01-04T10:39:15.805Z,12.70
2023-01-04T10:41:45.528Z,12.60
2023-01-04T10:44:16.189Z,12.60
2023-01-04T10:46:45.386Z,12.50
2023-01-04T10:49:15.250Z,12.50
2023-01-04T10:51:44.898Z,12.50
2023-01-04T10:54:16.543Z,12.60
2023-01-04T10:56:47.458Z,12.50
2023-01-04T10:59:18.800Z,12.50
2023-01-04T11:01:47.375Z,12.60
2023-01-04T11:04:16.106Z,12.50
2023-01-04T11:06:46.673Z,12.50
2023-01-04T11:09:22.835Z,12.50
2023-01-04T11:11:55.172Z,12.50
2023-01-04T11:14:22.066Z,12.50
2023-01-04T11:16:50.463Z,12.50
2023-01-04T11:19:17.402Z,12.50
2023-01-04T11:21:46.783Z,12.60
2023-01-04T11:24:31.476Z,12.60
2023-01-04T11:27:04.351Z,12.60
2023-01-04T11:29:34.082Z,12.60
2023-01-04T11:32:03.401Z,12.50
2023-01-04T11:34:47.145Z,12.50
2023-01-04T11:37:24.156Z,12.50
2023-01-04T11:39:50.906Z,12.30
2023-01-04T11:42:21.426Z,12.30
2023-01-04T11:44:57.783Z,12.40
2023-01-04T11:47:26.716Z,12.40
2023-01-04T11:49:55.479Z,12.40
2023-01-04T11:52:32.011Z,12.40
2023-01-04T11:55:15.340Z,12.30
2023-01-04T11:57:43.460Z,12.40
2023-01-04T12:00:14.677Z,12.40
2023-01-04T12:05:30.681Z,12.40
2023-01-04T12:07:57.978Z,12.40
2023-01-04T12:10:25.807Z,12.40
2023-01-04T12:12:54.201Z,12.40
2023-01-04T12:15:26.812Z,12.40
2023-01-04T12:17:55.365Z,12.30
2023-01-04T12:20:24.382Z,12.30
2023-01-04T12:22:51.189Z,12.30
2023-01-04T12:25:25.735Z,12.50
2023-01-04T12:27:54.023Z,12.40
2023-01-04T12:30:34.289Z,12.40
2023-01-04T12:33:17.280Z,12.40
2023-01-04T12:36:02.024Z,12.40
2023-01-04T12:38:53.075Z,12.40
2023-01-04T12:41:20.083Z,12.30
2023-01-04T12:43:48.366Z,12.30
2023-01-04T12:46:34.543Z,12.40
2023-01-04T12:49:22.416Z,12.40
2023-01-04T12:52:12.907Z,12.50
2023-01-04T12:54:45.190Z,12.40
2023-01-04T12:57:22.568Z,12.40
2023-01-04T12:59:58.084Z,12.40
2023-01-04T13:02:26.930Z,12.40
2023-01-04T13:05:17.057Z,12.40
2023-01-04T13:07:42.975Z,12.50
2023-01-04T13:10:20.396Z,12.40
2023-01-04T13:12:55.938Z,12.40
2023-01-04T13:15:27.205Z,12.40
2023-01-04T13:17:54.145Z,12.50
2023-01-04T13:20:22.362Z,12.60
2023-01-04T13:22:51.766Z,12.60
2023-01-04T13:25:19.496Z,12.60
2023-01-04T13:27:56.247Z,12.60
2023-01-04T13:30:32.115Z,12.60
2023-01-04T13:33:25.580Z,12.60
2023-01-04T13:35:57.720Z,12.80
2023-01-04T13:38:25.313Z,12.80
2023-01-04T13:40:52.164Z,12.80
2023-01-04T13:43:30.457Z,12.80
2023-01-04T13:46:07.982Z,12.80
2023-01-04T13:48:36.140Z,12.80
2023-01-04T13:51:04.304Z,12.70
2023-01-04T13:53:32.130Z,12.60
2023-01-04T13:56:00.249Z,12.60
2023-01-04T13:58:27.792Z,12.60
2023-01-04T14:00:56.661Z,12.60
2023-01-04T14:03:32.476Z,12.60
2023-01-04T14:06:12.286Z,12.60
2023-01-04T14:08:40.517Z,12.60
2023-01-04T14:11:13.860Z,12.60
2023-01-04T14:13:45.237Z,12.60
2023-01-04T14:16:13.635Z,12.70
2023-01-04T14:18:41.908Z,12.70
2023-01-04T14:21:15.107Z,12.60
2023-01-04T14:23:41.882Z,12.70
2023-01-04T14:26:28.719Z,12.70
2023-01-04T14:28:55.670Z,12.70
2023-01-04T14:31:32.166Z,12.70
2023-01-04T14:34:04.772Z,12.70
2023-01-04T14:36:32.034Z,12.70
2023-01-04T14:39:00.608Z,12.70
2023-01-04T14:41:30.850Z,12.70
2023-01-04T14:44:05.474Z,12.70
2023-01-04T14:46:32.424Z,12.80
2023-01-04T14:49:00.697Z,12.80
2023-01-04T14:51:32.162Z,12.90
2023-01-04T14:53:59.019Z,12.90
2023-01-04T14:56:25.852Z,12.90
2023-01-04T14:58:52.823Z,13.00
2023-01-04T15:01:19.668Z,13.00
2023-01-04T15:03:46.524Z,13.00
2023-01-04T15:06:14.647Z,13.00
2023-01-04T15:08:41.745Z,13.00
2023-01-04T15:11:09.783Z,13.10
2023-01-04T15:13:39.659Z,13.10
2023-01-04T15:16:07.656Z,13.00
2023-01-04T15:18:34.630Z,13.00
2023-01-04T15:21:02.696Z,13.00
2023-01-04T15:23:31.034Z,13.10
2023-01-04T15:25:57.824Z,13.10
2023-01-04T15:28:24.820Z,13.00
2023-01-04T15:30:51.828Z,13.00
2023-01-04T15:33:18.652Z,12.90
2023-01-04T15:35:45.531Z,12.90
2023-01-04T15:38:17.810Z,12.90
2023-01-04T15:40:46.422Z,12.90
2023-01-04T15:43:13.262Z,12.90
2023-01-04T15:45:40.154Z,12.80
2023-01-04T15:48:08.136Z,12.90
2023-01-04T15:50:35.916Z,12.80
2023-01-04T15:53:02.771Z,12.90
2023-01-04T15:55:34.114Z,12.80
2023-01-04T15:58:04.384Z,12.80
2023-01-04T16:00:31.154Z,12.70
2023-01-04T16:02:58.013Z,12.60
2023-01-04T16:05:24.805Z,12.60
2023-01-04T16:07:51.548Z,12.60
2023-01-04T16:10:18.687Z,12.70
2023-01-04T16:12:48.705Z,12.60
2023-01-04T16:15:21.252Z,12.60
2023-01-04T16:17:48.485Z,12.60
2023-01-04T16:20:16.327Z,12.60
2023-01-04T16:22:43.291Z,12.50
2023-01-04T16:25:11.683Z,12.60
2023-01-04T16:27:39.086Z,12.50
2023-01-04T16:30:07.446Z,12.60
2023-01-04T16:32:36.373Z,12.60
2023-01-04T16:35:03.344Z,12.60
2023-01-04T16:37:30.134Z,12.60
2023-01-04T16:40:12.570Z,12.60
2023-01-04T16:42:39.470Z,12.50
2023-01-04T16:45:07.204Z,12.60
2023-01-04T16:47:39.398Z,12.50
2023-01-04T16:50:06.381Z,12.60
2023-01-04T16:52:33.124Z,12.60
2023-01-04T16:54:59.980Z,12.50
2023-01-04T16:57:26.923Z,12.50
2023-01-04T16:59:53.690Z,12.50
2023-01-04T17:02:20.647Z,12.60
2023-01-04T17:04:50.101Z,12.60
2023-01-04T17:07:16.970Z,12.60
2023-01-04T17:09:43.763Z,12.60
2023-01-04T17:17:44.053Z,12.50
2023-01-04T17:20:12.475Z,12.50
2023-01-04T17:22:39.306Z,12.50
2023-01-04T17:25:06.744Z,12.50
2023-01-04T17:27:34.412Z,12.50
2023-01-04T17:30:01.601Z,12.40
2023-01-04T17:32:28.465Z,12.40
2023-01-04T17:34:55.305Z,12.40
2023-01-04T17:37:23.448Z,12.40
2023-01-04T17:39:50.219Z,12.40
2023-01-04T17:42:17.155Z,12.40
2023-01-04T17:44:43.982Z,12.40
2023-01-04T17:47:10.748Z,12.30
2023-01-04T17:49:37.575Z,12.30
2023-01-04T17:52:06.260Z,12.30
2023-01-04T17:54:36.737Z,12.30
2023-01-04T17:57:03.541Z,12.30
2023-01-04T17:59:30.443Z,12.30
2023-01-04T18:01:57.355Z,12.30
2023-01-04T18:04:24.226Z,12.40
2023-01-04T18:06:51.077Z,12.40
2023-01-04T18:09:20.358Z,12.40
2023-01-04T18:11:50.474Z,12.40
2023-01-04T18:14:17.251Z,12.40
2023-01-04T18:16:44.034Z,12.40
2023-01-04T18:19:10.938Z,12.40
2023-01-04T18:21:41.772Z,12.40
2023-01-04T18:29:43.661Z,12.50
2023-01-04T18:32:10.527Z,12.50
2023-01-04T18:34:37.529Z,12.40
2023-01-04T18:37:04.464Z,12.50
2023-01-04T18:39:31.267Z,12.50
2023-01-04T18:41:59.464Z,12.50
2023-01-04T18:44:34.744Z,12.50
2023-01-04T18:47:02.926Z,12.50
2023-01-04T18:49:30.009Z,12.50
2023-01-04T18:51:56.789Z,12.50
2023-01-04T18:54:23.657Z,12.50
2023-01-04T18:56:53.217Z,12.50
2023-01-04T18:59:25.420Z,12.40
2023-01-04T19:01:52.407Z,12.50
2023-01-04T19:04:19.388Z,12.50
2023-01-04T19:06:46.335Z,12.50
2023-01-04T19:09:13.230Z,12.50
2023-01-04T19:11:39.975Z,12.50
2023-01-04T19:14:06.855Z,12.50
2023-01-04T19:16:35.123Z,12.50
2023-01-04T19:19:02.179Z,12.60
2023-01-04T19:21:29.119Z,12.50
2023-01-04T19:23:57.189Z,12.40
2023-01-04T19:26:24.077Z,12.40
2023-01-04T19:28:51.387Z,12.40
2023-01-04T19:31:19.010Z,12.40
2023-01-04T19:33:47.629Z,12.30
2023-01-04T19:36:15.912Z,12.40
2023-01-04T19:38:42.680Z,12.30
2023-01-04T19:41:13.853Z,12.30
2023-01-04T19:43:40.633Z,12.30
2023-01-04T19:46:08.404Z,12.30
2023-01-04T19:48:35.542Z,12.40
2023-01-04T19:51:05.611Z,12.30
2023-01-04T19:53:32.499Z,12.20
2023-01-04T19:55:59.299Z,12.20
2023-01-04T19:58:26.144Z,12.30
2023-01-04T20:00:55.022Z,12.20
2023-01-04T20:03:22.133Z,12.30
2023-01-04T20:05:49.096Z,12.30
2023-01-04T20:08:17.406Z,12.30
2023-01-04T20:10:44.245Z,12.40
2023-01-04T20:13:11.004Z,12.40
2023-01-04T20:15:38.030Z,12.40
2023-01-04T20:18:10.014Z,12.40
2023-01-04T20:20:40.954Z,12.40
2023-01-04T20:23:07.787Z,12.30
2023-01-04T20:25:39.434Z,12.30
2023-01-04T20:28:06.457Z,12.40
2023-01-04T20:30:33.465Z,12.30
2023-01-04T20:33:00.394Z,12.30
2023-01-04T20:35:27.347Z,12.30
2023-01-04T20:37:54.190Z,12.30
2023-01-04T20:42:27.804Z,12.20
2023-01-04T20:44:54.857Z,12.20
2023-01-04T20:47:21.959Z,12.10
2023-01-04T20:49:49.132Z,12.10
2023-01-04T20:52:16.213Z,12.10
2023-01-04T20:54:43.233Z,12.10
2023-01-04T20:57:10.263Z,12.10
2023-01-04T20:59:38.645Z,12.10
2023-01-04T21:02:05.755Z,12.00
2023-01-04T21:04:33.055Z,12.00
2023-01-04T21:07:00.063Z,12.00
2023-01-04T21:09:27.154Z,12.00
2023-01-04T21:11:55.900Z,11.90
2023-01-04T21:14:24.658Z,12.00
2023-01-04T21:16:53.032Z,11.90
2023-01-04T21:19:20.291Z,11.80
2023-01-04T21:21:47.343Z,11.80
2023-01-04T21:24:14.382Z,11.70
2023-01-04T21:26:41.452Z,11.70
2023-01-04T21:29:08.513Z,11.70
2023-01-04T21:31:35.598Z,11.60
2023-01-04T21:34:09.321Z,11.60
2023-01-04T21:36:40.024Z,11.60
2023-01-04T21:39:07.001Z,11.60
2023-01-04T21:41:34.164Z,11.60
2023-01-04T21:44:01.845Z,11.50
2023-01-04T21:46:28.908Z,11.50
2023-01-04T21:48:57.389Z,11.50
2023-01-04T21:51:25.939Z,11.50
2023-01-04T21:53:52.965Z,11.40
2023-01-04T21:56:21.478Z,11.50
2023-01-04T21:58:48.909Z,11.40
2023-01-04T22:01:18.225Z,11.40
2023-01-04T22:03:45.440Z,11.40
2023-01-04T22:06:13.100Z,11.40
2023-01-04T22:08:42.392Z,11.40
2023-01-04T22:11:09.729Z,11.40
2023-01-04T22:13:36.777Z,11.40
2023-01-04T22:16:06.280Z,11.30
2023-01-04T22:18:33.639Z,11.40
2023-01-04T22:21:05.885Z,11.40
2023-01-04T22:23:33.721Z,11.40
2023-01-04T22:26:02.803Z,11.30
2023-01-04T22:28:36.332Z,11.30
2023-01-04T22:31:05.535Z,11.30
2023-01-04T22:33:33.047Z,11.30
2023-01-04T22:36:02.725Z,11.40
2023-01-04T22:38:29.780Z,11.30
2023-01-04T22:40:56.885Z,11.40
2023-01-04T22:43:25.231Z,11.30
2023-01-04T22:45:59.531Z,11.40
2023-01-04T22:48:26.680Z,11.40
2023-01-04T22:50:53.898Z,11.40
2023-01-04T22:53:21.128Z,11.40
2023-01-04T22:56:17.662Z,11.40
2023-01-04T22:58:37.036Z,11.40
2023-01-04T23:01:05.014Z,11.50
2023-01-04T23:03:33.010Z,11.50
2023-01-04T23:06:00.188Z,11.50
2023-01-04T23:08:27.511Z,11.50
2023-01-04T23:10:54.454Z,11.50
2023-01-04T23:13:21.480Z,11.40
2023-01-04T23:15:49.888Z,11.40
2023-01-04T23:18:16.956Z,11.40
2023-01-04T23:20:43.928Z,11.40
2023-01-04T23:23:11.029Z,11.50
2023-01-04T23:25:38.069Z,11.40
2023-01-04T23:28:05.460Z,11.40
2023-01-04T23:30:32.862Z,11.40
2023-01-04T23:33:01.296Z,11.40
2023-01-04T23:35:28.291Z,11.40
2023-01-04T23:37:55.380Z,11.40
2023-01-04T23:40:22.548Z,11.40
2023-01-04T23:42:49.535Z,11.40
2023-01-04T23:45:16.557Z,11.30
2023-01-04T23:47:43.692Z,11.30
2023-01-04T23:50:12.037Z,11.30
2023-01-04T23:52:39.106Z,11.20
2023-01-04T23:55:06.914Z,11.30
2023-01-04T23:57:33.952Z,11.20
